Time;durP1;ratioP1;P1;durP2;ratioP2;P2;SDS_P1;SDS_P2;PMS_P1;PMS_P2;Temp;Humidity;BMP_temperature;BMP_pressure;BME280_temperature;BME280_humidity;BME280_pressure;Samples;Min_cycle;Max_cycle;Signal;HPM_P1;HPM_P2
2022/05/30 00:02:11;;;;;;;;;;;9.70;99.90;;;;;;5112369;28;19932;-68
2022/05/30 00:04:37;;;;;;;;;;;9.70;99.90;;;;;;5109433;28;19923;-68
2022/05/30 00:07:04;;;;;;;;;;;9.60;99.90;;;;;;5088626;28;19956;-69
2022/05/30 00:09:29;;;;;;;;;;;9.60;99.90;;;;;;5110176;28;19912;-68
2022/05/30 00:11:55;;;;;;;;;;;9.70;99.90;;;;;;5111628;28;19912;-68
2022/05/30 00:14:20;;;;;;;;;;;9.60;99.90;;;;;;5091686;28;19958;-68
2022/05/30 00:16:46;;;;;;;;;;;9.80;99.90;;;;;;5110685;28;19931;-68
2022/05/30 00:19:12;;;;;;;;;;;9.90;99.90;;;;;;5093559;28;19912;-68
2022/05/30 00:21:38;;;;;;;;;;;9.80;99.90;;;;;;5114395;28;19973;-69
2022/05/30 00:24:06;;;;;;;;;;;9.70;99.90;;;;;;5111305;28;19918;-68
2022/05/30 00:26:32;;;;;;;;;;;9.70;99.90;;;;;;5108039;28;19936;-68
2022/05/30 00:28:57;;;;;;;;;;;9.70;99.90;;;;;;5110357;28;19945;-67
2022/05/30 00:31:23;;;;;;;;;;;9.60;99.90;;;;;;5109700;28;20094;-68
2022/05/30 00:33:49;;;;;;;;;;;9.60;99.90;;;;;;5107023;28;20006;-68
2022/05/30 00:36:14;;;;;;;;;;;9.60;99.90;;;;;;5111859;28;19912;-67
2022/05/30 00:38:40;;;;;;;;;;;9.50;99.90;;;;;;5111025;28;19919;-67
2022/05/30 00:41:06;;;;;;;;;;;9.50;99.90;;;;;;5103797;28;19929;-67
2022/05/30 00:43:33;;;;;;;;;;;9.50;99.90;;;;;;5106008;28;19900;-67
2022/05/30 00:46:01;;;;;;;;;;;9.50;99.90;;;;;;5110972;28;19919;-66
2022/05/30 00:48:38;;;;;;;;;;;9.40;99.90;;;;;;5104463;28;19947;-67
2022/05/30 00:51:06;;;;;;;;;;;9.40;99.90;;;;;;5105930;28;19918;-67
2022/05/30 00:53:33;;;;;;;;;;;9.70;99.90;;;;;;5109675;28;19913;-67
2022/05/30 00:56:00;;;;;;;;;;;9.70;99.90;;;;;;5107820;28;20119;-67
2022/05/30 00:58:27;;;;;;;;;;;9.60;99.90;;;;;;5110176;28;19995;-67
2022/05/30 01:00:53;;;;;;;;;;;9.60;99.90;;;;;;5109804;28;19920;-68
2022/05/30 01:08:47;;;;;;;;;;;9.50;99.90;;;;;;5106598;28;19974;-67
2022/05/30 01:11:13;;;;;;;;;;;9.50;99.90;;;;;;5103177;28;19912;-68
2022/05/30 01:13:38;;;;;;;;;;;9.50;99.90;;;;;;5106348;28;19923;-67
2022/05/30 01:16:05;;;;;;;;;;;9.60;99.90;;;;;;5108133;28;19926;-69
2022/05/30 01:18:40;;;;;;;;;;;9.60;99.90;;;;;;5108086;28;19924;-68
2022/05/30 01:21:18;;;;;;;;;;;9.60;99.90;;;;;;5107867;28;19919;-66
2022/05/30 01:23:58;;;;;;;;;;;9.60;99.90;;;;;;5109828;28;19912;-67
2022/05/30 01:26:26;;;;;;;;;;;9.60;99.90;;;;;;5090589;28;19900;-67
2022/05/30 01:28:55;;;;;;;;;;;9.50;99.90;;;;;;5124015;28;19908;-68
2022/05/30 01:31:21;;;;;;;;;;;9.60;99.90;;;;;;5095799;28;19896;-67
2022/05/30 01:33:47;;;;;;;;;;;9.70;99.90;;;;;;5104113;28;20309;-67
2022/05/30 01:36:13;;;;;;;;;;;9.90;99.90;;;;;;5113887;28;19927;-67
2022/05/30 01:38:38;;;;;;;;;;;9.90;99.90;;;;;;5114214;28;19971;-67
2022/05/30 01:41:04;;;;;;;;;;;9.80;99.90;;;;;;5114552;28;19975;-68
2022/05/30 01:43:30;;;;;;;;;;;9.70;99.90;;;;;;5117940;28;19916;-68
2022/05/30 01:45:55;;;;;;;;;;;9.70;99.90;;;;;;5112878;28;19916;-68
2022/05/30 01:48:21;;;;;;;;;;;9.80;99.90;;;;;;5112133;28;19927;-67
2022/05/30 01:50:47;;;;;;;;;;;9.70;99.90;;;;;;5112355;28;19912;-67
2022/05/30 01:53:13;;;;;;;;;;;9.90;99.90;;;;;;5112884;28;19912;-67
2022/05/30 01:55:39;;;;;;;;;;;9.90;99.90;;;;;;5109220;28;19934;-68
2022/05/30 01:58:05;;;;;;;;;;;10.00;99.90;;;;;;5113086;28;19912;-68
2022/05/30 02:00:30;;;;;;;;;;;9.90;99.90;;;;;;5109180;28;20531;-68
2022/05/30 02:02:56;;;;;;;;;;;9.90;99.90;;;;;;5093453;28;20042;-67
2022/05/30 02:05:21;;;;;;;;;;;9.90;99.90;;;;;;5109837;28;19920;-68
2022/05/30 02:07:47;;;;;;;;;;;9.80;99.90;;;;;;5111434;28;19912;-68
2022/05/30 02:10:12;;;;;;;;;;;9.80;99.90;;;;;;5110556;28;19954;-67
2022/05/30 02:12:38;;;;;;;;;;;9.70;99.90;;;;;;5107699;28;19912;-69
2022/05/30 02:15:04;;;;;;;;;;;9.60;99.90;;;;;;5091406;28;19934;-68
2022/05/30 02:17:31;;;;;;;;;;;9.70;99.90;;;;;;5106134;28;19921;-68
2022/05/30 02:19:57;;;;;;;;;;;9.60;99.90;;;;;;5086724;28;19936;-67
2022/05/30 02:22:23;;;;;;;;;;;9.60;99.90;;;;;;5108991;28;20380;-67
2022/05/30 02:24:48;;;;;;;;;;;9.60;99.90;;;;;;5106775;28;19922;-67
2022/05/30 02:27:15;;;;;;;;;;;9.60;99.90;;;;;;5103008;28;19951;-68
2022/05/30 02:29:40;;;;;;;;;;;9.70;99.90;;;;;;5104401;28;19983;-68
2022/05/30 02:32:06;;;;;;;;;;;9.70;99.90;;;;;;5088041;28;19994;-68
2022/05/30 02:37:16;;;;;;;;;;;10.00;99.90;;;;;;5101562;28;19920;-67
2022/05/30 02:39:42;;;;;;;;;;;9.90;99.90;;;;;;5103233;28;20195;-68
2022/05/30 02:42:07;;;;;;;;;;;9.90;99.90;;;;;;5103536;28;19912;-68
2022/05/30 02:44:33;;;;;;;;;;;10.00;99.90;;;;;;5089722;28;19977;-68
2022/05/30 02:46:59;;;;;;;;;;;10.10;99.90;;;;;;5101259;28;19979;-68
2022/05/30 02:49:25;;;;;;;;;;;10.10;99.90;;;;;;5105752;28;19896;-68
2022/05/30 02:51:50;;;;;;;;;;;10.00;99.90;;;;;;5102094;28;19912;-68
2022/05/30 02:54:17;;;;;;;;;;;10.00;99.90;;;;;;5100991;28;19920;-66
2022/05/30 02:56:47;;;;;;;;;;;10.00;99.90;;;;;;5101826;28;19912;-67
2022/05/30 02:59:13;;;;;;;;;;;9.90;99.90;;;;;;5100876;28;19938;-67
2022/05/30 03:01:38;;;;;;;;;;;10.00;99.90;;;;;;5106240;28;19916;-67
2022/05/30 03:04:07;;;;;;;;;;;10.00;99.90;;;;;;5104599;28;19916;-67
2022/05/30 03:06:33;;;;;;;;;;;10.00;99.90;;;;;;5086233;28;19896;-67
2022/05/30 03:08:59;;;;;;;;;;;10.00;99.90;;;;;;5100603;28;19920;-67
2022/05/30 03:11:24;;;;;;;;;;;10.20;99.90;;;;;;5102666;28;19943;-67
2022/05/30 03:13:50;;;;;;;;;;;10.30;99.90;;;;;;5105288;28;19913;-67
2022/05/30 03:16:16;;;;;;;;;;;10.30;99.90;;;;;;5108622;28;19922;-67
2022/05/30 03:18:42;;;;;;;;;;;10.20;99.90;;;;;;5107889;28;20192;-67
2022/05/30 03:21:08;;;;;;;;;;;10.00;99.90;;;;;;5108212;28;19995;-67
2022/05/30 03:23:33;;;;;;;;;;;9.90;99.90;;;;;;5108866;28;20336;-67
2022/05/30 03:25:59;;;;;;;;;;;9.80;99.90;;;;;;5109829;28;19954;-66
2022/05/30 03:28:25;;;;;;;;;;;9.70;99.90;;;;;;5088667;28;19919;-67
2022/05/30 03:30:50;;;;;;;;;;;9.60;99.90;;;;;;5107879;28;19912;-67
2022/05/30 03:33:16;;;;;;;;;;;9.60;99.90;;;;;;5106673;28;19920;-67
2022/05/30 03:35:42;;;;;;;;;;;9.50;99.90;;;;;;5106011;28;19939;-67
2022/05/30 03:38:07;;;;;;;;;;;9.60;99.90;;;;;;5109368;28;19919;-67
2022/05/30 03:40:33;;;;;;;;;;;9.60;99.90;;;;;;5109432;28;19916;-67
2022/05/30 03:42:59;;;;;;;;;;;9.70;99.90;;;;;;5092656;28;19916;-66
2022/05/30 03:45:24;;;;;;;;;;;9.60;99.90;;;;;;5106635;28;19916;-67
2022/05/30 03:47:50;;;;;;;;;;;9.70;99.90;;;;;;5108767;28;19912;-71
2022/05/30 03:50:21;;;;;;;;;;;9.60;99.90;;;;;;5087827;28;19919;-67
2022/05/30 03:52:47;;;;;;;;;;;9.80;99.90;;;;;;5105988;28;19900;-67
2022/05/30 03:55:14;;;;;;;;;;;9.80;99.90;;;;;;5107427;28;19951;-67
2022/05/30 03:57:40;;;;;;;;;;;9.80;99.90;;;;;;5108761;28;19912;-68
2022/05/30 04:00:10;;;;;;;;;;;9.70;99.90;;;;;;5108335;28;19984;-68
2022/05/30 04:02:35;;;;;;;;;;;9.60;99.90;;;;;;5105853;28;19921;-67
2022/05/30 04:05:01;;;;;;;;;;;9.50;99.90;;;;;;5105989;28;19912;-67
2022/05/30 04:07:26;;;;;;;;;;;9.40;99.90;;;;;;5107218;28;19917;-68
2022/05/30 04:09:52;;;;;;;;;;;9.40;99.90;;;;;;5088497;28;19934;-68
2022/05/30 04:12:21;;;;;;;;;;;9.40;99.90;;;;;;5092983;28;19919;-68
2022/05/30 04:14:56;;;;;;;;;;;9.30;99.90;;;;;;5101217;28;19916;-68
2022/05/30 04:17:23;;;;;;;;;;;9.30;99.90;;;;;;5103795;28;19912;-67
2022/05/30 04:19:48;;;;;;;;;;;9.20;99.90;;;;;;5109466;28;19943;-68
2022/05/30 04:22:14;;;;;;;;;;;9.20;99.90;;;;;;5103162;28;19920;-68
2022/05/30 04:24:40;;;;;;;;;;;9.30;99.90;;;;;;5105689;28;19923;-68
2022/05/30 04:27:05;;;;;;;;;;;9.40;99.90;;;;;;5113127;28;19912;-68
2022/05/30 04:29:31;;;;;;;;;;;9.50;99.90;;;;;;5108870;28;19912;-67
2022/05/30 04:31:58;;;;;;;;;;;9.40;99.90;;;;;;5111624;28;19943;-68
2022/05/30 04:34:24;;;;;;;;;;;9.40;99.90;;;;;;5111222;28;19938;-68
2022/05/30 04:36:49;;;;;;;;;;;9.30;99.90;;;;;;5107943;28;19913;-68
2022/05/30 04:39:15;;;;;;;;;;;9.20;99.90;;;;;;5108810;28;20316;-68
2022/05/30 04:41:40;;;;;;;;;;;9.30;99.90;;;;;;5107999;28;20277;-68
2022/05/30 04:44:06;;;;;;;;;;;9.30;99.90;;;;;;5108620;28;19919;-68
2022/05/30 04:46:31;;;;;;;;;;;9.20;99.90;;;;;;5089468;28;19919;-68
2022/05/30 04:48:57;;;;;;;;;;;9.20;99.90;;;;;;5090613;28;19919;-68
2022/05/30 04:51:23;;;;;;;;;;;9.20;99.90;;;;;;5103379;28;19916;-67
2022/05/30 04:53:49;;;;;;;;;;;9.30;99.90;;;;;;5098515;28;20000;-68
2022/05/30 04:56:16;;;;;;;;;;;9.20;99.90;;;;;;5101461;28;19959;-68
2022/05/30 04:58:41;;;;;;;;;;;9.30;99.90;;;;;;5104012;28;19912;-68
2022/05/30 05:01:09;;;;;;;;;;;9.30;99.90;;;;;;5105085;28;19979;-68
2022/05/30 05:03:37;;;;;;;;;;;9.20;99.90;;;;;;5109797;28;19912;-68
2022/05/30 05:06:03;;;;;;;;;;;9.30;99.90;;;;;;5107614;28;19975;-68
2022/05/30 05:08:32;;;;;;;;;;;9.30;99.90;;;;;;5090978;28;19912;-68
2022/05/30 05:10:58;;;;;;;;;;;9.20;99.90;;;;;;5107771;28;19965;-67
2022/05/30 05:13:23;;;;;;;;;;;9.10;99.90;;;;;;5107694;28;19912;-69
2022/05/30 05:15:49;;;;;;;;;;;9.10;99.90;;;;;;5087454;28;19920;-67
2022/05/30 05:18:14;;;;;;;;;;;9.20;99.90;;;;;;5107976;28;19900;-67
2022/05/30 05:20:42;;;;;;;;;;;9.30;99.90;;;;;;5108468;28;19924;-67
2022/05/30 05:23:08;;;;;;;;;;;9.30;99.90;;;;;;5090533;28;19912;-68
2022/05/30 05:25:37;;;;;;;;;;;9.30;99.90;;;;;;5109209;28;19980;-69
2022/05/30 05:28:03;;;;;;;;;;;9.30;99.90;;;;;;5099155;28;19912;-67
2022/05/30 05:30:28;;;;;;;;;;;9.30;99.90;;;;;;5102486;28;19903;-69
2022/05/30 05:32:53;;;;;;;;;;;9.40;99.90;;;;;;5104777;28;19916;-68
2022/05/30 05:35:19;;;;;;;;;;;9.50;99.90;;;;;;5103031;28;19912;-69
2022/05/30 05:37:45;;;;;;;;;;;9.60;99.90;;;;;;5085541;28;19919;-67
2022/05/30 05:40:11;;;;;;;;;;;9.60;99.90;;;;;;5106712;28;19926;-68
2022/05/30 05:42:36;;;;;;;;;;;9.70;99.90;;;;;;5108304;28;19916;-67
2022/05/30 05:45:02;;;;;;;;;;;9.80;99.90;;;;;;5104427;28;19998;-67
2022/05/30 05:47:27;;;;;;;;;;;9.80;99.90;;;;;;5106000;28;19927;-69
2022/05/30 05:49:53;;;;;;;;;;;9.80;99.90;;;;;;5107997;28;19920;-67
2022/05/30 05:52:20;;;;;;;;;;;9.90;99.90;;;;;;5093474;28;19919;-68
2022/05/30 05:54:46;;;;;;;;;;;9.90;99.90;;;;;;5105385;28;19915;-68
2022/05/30 05:57:12;;;;;;;;;;;10.00;99.90;;;;;;5101546;28;19900;-69
2022/05/30 05:59:37;;;;;;;;;;;10.10;99.90;;;;;;5102885;28;19916;-68
2022/05/30 06:02:07;;;;;;;;;;;10.20;99.90;;;;;;5104289;28;19924;-69
2022/05/30 06:04:32;;;;;;;;;;;10.20;99.90;;;;;;5100531;28;19912;-69
2022/05/30 06:07:01;;;;;;;;;;;10.30;99.90;;;;;;5106972;28;19912;-67
2022/05/30 06:09:27;;;;;;;;;;;10.40;99.90;;;;;;5106614;28;19916;-67
2022/05/30 06:11:53;;;;;;;;;;;10.30;99.90;;;;;;5103239;28;19919;-68
2022/05/30 06:14:19;;;;;;;;;;;10.50;99.90;;;;;;5103636;28;19942;-67
2022/05/30 06:16:45;;;;;;;;;;;10.70;99.90;;;;;;5100114;28;19916;-68
2022/05/30 06:19:10;;;;;;;;;;;10.90;99.90;;;;;;5104597;28;19912;-68
2022/05/30 06:21:36;;;;;;;;;;;10.80;99.90;;;;;;5099574;28;19927;-68
2022/05/30 06:24:02;;;;;;;;;;;10.80;99.90;;;;;;5103948;28;19912;-67
2022/05/30 06:26:28;;;;;;;;;;;10.90;99.90;;;;;;5097906;28;19999;-66
2022/05/30 06:28:57;;;;;;;;;;;11.00;99.90;;;;;;5099672;28;19942;-67
2022/05/30 06:31:24;;;;;;;;;;;11.30;99.90;;;;;;5094132;28;19928;-68
2022/05/30 06:33:50;;;;;;;;;;;11.40;99.90;;;;;;5090432;28;19912;-68
2022/05/30 06:36:17;;;;;;;;;;;11.60;99.90;;;;;;5095325;28;19955;-67
2022/05/30 06:38:43;;;;;;;;;;;11.80;99.90;;;;;;5093448;28;19947;-68
2022/05/30 06:41:12;;;;;;;;;;;11.80;99.90;;;;;;5092025;28;19928;-67
2022/05/30 06:43:38;;;;;;;;;;;11.90;99.90;;;;;;5093356;28;19987;-67
2022/05/30 06:46:03;;;;;;;;;;;11.90;99.90;;;;;;5090058;28;19966;-67
2022/05/30 06:48:29;;;;;;;;;;;11.90;99.90;;;;;;5089632;28;20317;-68
2022/05/30 06:50:55;;;;;;;;;;;11.90;99.90;;;;;;5088935;28;19916;-67
2022/05/30 06:53:21;;;;;;;;;;;12.00;99.90;;;;;;5088051;28;19916;-67
2022/05/30 06:55:49;;;;;;;;;;;12.00;99.90;;;;;;5089597;28;19919;-68
2022/05/30 06:58:15;;;;;;;;;;;12.00;99.90;;;;;;5077742;28;19923;-71
2022/05/30 07:00:42;;;;;;;;;;;12.20;99.90;;;;;;5100222;28;19935;-66
2022/05/30 07:03:07;;;;;;;;;;;12.40;99.90;;;;;;5096209;28;20404;-67
2022/05/30 07:05:34;;;;;;;;;;;12.60;99.90;;;;;;5083516;28;19912;-68
2022/05/30 07:08:00;;;;;;;;;;;12.70;99.90;;;;;;5102179;28;19961;-66
2022/05/30 07:10:27;;;;;;;;;;;12.80;99.90;;;;;;5103178;28;19915;-68
2022/05/30 07:12:52;;;;;;;;;;;12.90;99.90;;;;;;5100761;28;19920;-68
2022/05/30 07:15:18;;;;;;;;;;;12.90;99.90;;;;;;5101621;28;19935;-67
2022/05/30 07:17:44;;;;;;;;;;;12.90;99.90;;;;;;5097866;28;19944;-68
2022/05/30 07:20:10;;;;;;;;;;;12.90;99.90;;;;;;5080283;28;19959;-69
2022/05/30 07:22:35;;;;;;;;;;;13.00;99.90;;;;;;5095641;28;20176;-67
2022/05/30 07:25:01;;;;;;;;;;;13.10;99.90;;;;;;5103591;28;20231;-69
2022/05/30 07:27:27;;;;;;;;;;;13.10;99.90;;;;;;5095273;28;19930;-69
2022/05/30 07:29:52;;;;;;;;;;;13.10;99.90;;;;;;5109435;28;19916;-68
2022/05/30 07:32:18;;;;;;;;;;;13.30;99.90;;;;;;5096282;28;19958;-68
2022/05/30 07:34:44;;;;;;;;;;;13.50;99.90;;;;;;5093341;28;20011;-69
2022/05/30 07:37:10;;;;;;;;;;;13.70;99.90;;;;;;5109547;28;19983;-67
2022/05/30 07:39:36;;;;;;;;;;;13.80;99.90;;;;;;5100133;28;19951;-68
2022/05/30 07:42:03;;;;;;;;;;;13.80;99.90;;;;;;5101869;28;20054;-68
2022/05/30 07:44:28;;;;;;;;;;;13.90;99.90;;;;;;5092541;28;19912;-68
2022/05/30 07:46:54;;;;;;;;;;;13.90;99.90;;;;;;5095172;28;19927;-67
2022/05/30 07:49:20;;;;;;;;;;;13.80;99.90;;;;;;5098286;28;19977;-67
2022/05/30 07:51:46;;;;;;;;;;;13.80;99.90;;;;;;5098016;28;19943;-68
2022/05/30 07:54:11;;;;;;;;;;;13.90;99.90;;;;;;5085152;28;20023;-66
2022/05/30 07:56:37;;;;;;;;;;;14.00;99.90;;;;;;5102040;28;19916;-67
2022/05/30 07:59:03;;;;;;;;;;;14.10;99.90;;;;;;5103549;28;19919;-68
2022/05/30 08:01:28;;;;;;;;;;;14.30;99.90;;;;;;5103281;28;19995;-68
2022/05/30 08:03:54;;;;;;;;;;;14.50;99.90;;;;;;5098963;28;19923;-68
2022/05/30 08:06:25;;;;;;;;;;;14.40;99.90;;;;;;5097283;28;19924;-67
2022/05/30 08:08:52;;;;;;;;;;;14.40;99.90;;;;;;5097214;28;19912;-67
2022/05/30 08:11:24;;;;;;;;;;;14.60;99.90;;;;;;5099471;28;19924;-69
2022/05/30 08:13:50;;;;;;;;;;;14.70;99.90;;;;;;5100700;28;19923;-68
2022/05/30 08:16:26;;;;;;;;;;;14.60;99.90;;;;;;5103618;28;19916;-67
2022/05/30 08:18:52;;;;;;;;;;;14.60;99.90;;;;;;5096201;28;20190;-67
2022/05/30 08:21:17;;;;;;;;;;;14.70;99.90;;;;;;5081314;28;20246;-67
2022/05/30 08:23:43;;;;;;;;;;;14.80;99.90;;;;;;5099953;28;20405;-68
2022/05/30 08:26:09;;;;;;;;;;;15.00;99.90;;;;;;5107879;28;19908;-68
2022/05/30 08:28:35;;;;;;;;;;;15.20;99.90;;;;;;5090611;28;19916;-69
2022/05/30 08:31:01;;;;;;;;;;;15.40;99.20;;;;;;5106100;28;20648;-68
2022/05/30 08:33:27;;;;;;;;;;;15.40;97.60;;;;;;5105829;28;20357;-69
2022/05/30 08:36:01;;;;;;;;;;;15.60;97.00;;;;;;5087632;28;19912;-67
2022/05/30 08:38:26;;;;;;;;;;;15.90;95.40;;;;;;5106085;28;19958;-68
2022/05/30 08:43:38;;;;;;;;;;;16.40;95.70;;;;;;5105183;28;19937;-68
2022/05/30 08:46:08;;;;;;;;;;;16.70;94.10;;;;;;5106767;28;19911;-68
2022/05/30 08:48:46;;;;;;;;;;;16.80;93.40;;;;;;5106747;28;19913;-67
2022/05/30 08:51:30;;;;;;;;;;;16.70;91.40;;;;;;5097713;28;19922;-68
2022/05/30 08:54:14;;;;;;;;;;;16.70;92.40;;;;;;5096728;28;20337;-68
2022/05/30 08:56:42;;;;;;;;;;;16.50;93.40;;;;;;5110216;28;20199;-67
2022/05/30 08:59:23;;;;;;;;;;;16.20;93.70;;;;;;5102333;28;19912;-68
2022/05/30 09:01:48;;;;;;;;;;;15.90;94.80;;;;;;5083060;28;19920;-68
2022/05/30 09:04:19;;;;;;;;;;;15.80;95.50;;;;;;5101378;28;19916;-68
2022/05/30 09:06:48;;;;;;;;;;;15.70;95.80;;;;;;5102487;28;19931;-67
2022/05/30 09:09:16;;;;;;;;;;;15.60;96.70;;;;;;5103077;28;19938;-68
2022/05/30 09:11:44;;;;;;;;;;;15.60;96.20;;;;;;5105849;28;19916;-69
2022/05/30 09:14:25;;;;;;;;;;;15.60;96.00;;;;;;5106414;28;19912;-68
2022/05/30 09:16:55;;;;;;;;;;;15.60;96.00;;;;;;5107488;28;19923;-69
2022/05/30 09:19:23;;;;;;;;;;;15.70;96.00;;;;;;5107253;28;19947;-68
2022/05/30 09:21:49;;;;;;;;;;;15.60;96.10;;;;;;5104773;28;19920;-69
2022/05/30 09:24:16;;;;;;;;;;;15.70;96.70;;;;;;5106972;28;19912;-68
2022/05/30 09:26:41;;;;;;;;;;;15.70;96.80;;;;;;5077208;28;19913;-71
2022/05/30 09:29:14;;;;;;;;;;;15.70;97.00;;;;;;5089285;28;19912;-68
2022/05/30 09:31:58;;;;;;;;;;;15.60;97.30;;;;;;5088449;28;19973;-69
2022/05/30 09:34:28;;;;;;;;;;;15.60;97.30;;;;;;5103719;28;20060;-68
2022/05/30 09:36:54;;;;;;;;;;;15.40;96.70;;;;;;5105649;28;19912;-67
2022/05/30 09:39:19;;;;;;;;;;;15.40;96.30;;;;;;5102331;28;19962;-68
2022/05/30 09:41:56;;;;;;;;;;;15.60;95.80;;;;;;5096287;28;19919;-68
2022/05/30 09:44:26;;;;;;;;;;;15.80;95.40;;;;;;5106278;28;19923;-68
2022/05/30 09:47:04;;;;;;;;;;;16.00;94.60;;;;;;5084970;28;19924;-68
2022/05/30 09:49:43;;;;;;;;;;;16.00;93.80;;;;;;5104728;28;20288;-70
2022/05/30 09:52:35;;;;;;;;;;;15.90;95.30;;;;;;5102819;28;20241;-67
2022/05/30 09:55:19;;;;;;;;;;;15.60;96.90;;;;;;5103602;28;19961;-68
2022/05/30 09:57:44;;;;;;;;;;;15.60;97.40;;;;;;5107437;28;19912;-67
2022/05/30 10:00:12;;;;;;;;;;;15.50;98.00;;;;;;5098160;28;19928;-67
2022/05/30 10:02:38;;;;;;;;;;;15.70;96.90;;;;;;5103324;28;19912;-67
2022/05/30 10:05:06;;;;;;;;;;;15.70;97.00;;;;;;5108742;28;19912;-68
2022/05/30 10:07:32;;;;;;;;;;;16.00;96.40;;;;;;5087719;28;19972;-68
2022/05/30 10:09:59;;;;;;;;;;;16.20;96.00;;;;;;5112041;28;19912;-68
2022/05/30 10:12:31;;;;;;;;;;;16.40;94.60;;;;;;5111773;28;20281;-68
2022/05/30 10:14:56;;;;;;;;;;;16.70;93.40;;;;;;5100833;28;19912;-70
2022/05/30 10:17:28;;;;;;;;;;;16.90;92.70;;;;;;5109511;28;20361;-69
2022/05/30 10:19:54;;;;;;;;;;;17.30;92.00;;;;;;5107544;28;20007;-68
2022/05/30 10:28:26;;;;;;;;;;;17.60;90.90;;;;;;5098472;28;20012;-72
2022/05/30 10:31:02;;;;;;;;;;;17.40;91.50;;;;;;5089762;28;19987;-69
2022/05/30 10:33:44;;;;;;;;;;;17.40;91.90;;;;;;5102126;28;19942;-70
2022/05/30 10:36:09;;;;;;;;;;;17.20;92.30;;;;;;5106710;28;19921;-70
2022/05/30 10:38:41;;;;;;;;;;;17.10;92.00;;;;;;5103964;28;19931;-69
2022/05/30 10:41:09;;;;;;;;;;;17.00;91.50;;;;;;5103315;28;19924;-68
2022/05/30 10:43:47;;;;;;;;;;;17.10;91.70;;;;;;5088639;28;20503;-68
2022/05/30 10:46:18;;;;;;;;;;;17.20;91.70;;;;;;5095926;28;20507;-69
2022/05/30 10:48:54;;;;;;;;;;;17.30;91.70;;;;;;5082574;28;19917;-69
2022/05/30 10:51:23;;;;;;;;;;;17.50;91.30;;;;;;5067503;28;19912;-68
2022/05/30 10:53:54;;;;;;;;;;;17.50;90.70;;;;;;5092237;28;20013;-68
2022/05/30 10:56:32;;;;;;;;;;;17.40;90.90;;;;;;5075377;28;19958;-69
2022/05/30 10:59:17;;;;;;;;;;;17.20;91.10;;;;;;5091671;28;20677;-68
2022/05/30 11:01:55;;;;;;;;;;;17.20;91.20;;;;;;5073505;28;19981;-68
2022/05/30 11:04:59;;;;;;;;;;;17.30;91.50;;;;;;5087881;28;19954;-69
2022/05/30 11:07:36;;;;;;;;;;;17.30;91.70;;;;;;4992443;28;19969;-69
2022/05/30 11:10:14;;;;;;;;;;;16.90;92.20;;;;;;4993060;28;20313;-69
2022/05/30 11:12:42;;;;;;;;;;;16.80;93.00;;;;;;5055122;28;19952;-69
2022/05/30 11:15:26;;;;;;;;;;;16.50;93.30;;;;;;5089153;28;20002;-69
2022/05/30 11:18:01;;;;;;;;;;;16.40;93.70;;;;;;5088335;28;20290;-68
2022/05/30 11:20:53;;;;;;;;;;;16.50;94.00;;;;;;5100690;28;19980;-68
2022/05/30 11:23:20;;;;;;;;;;;16.30;94.50;;;;;;5103061;28;20371;-68
2022/05/30 11:26:04;;;;;;;;;;;16.10;95.90;;;;;;5110934;28;19944;-71
2022/05/30 11:28:45;;;;;;;;;;;15.90;97.10;;;;;;5101134;28;19961;-69
2022/05/30 11:31:23;;;;;;;;;;;15.40;99.90;;;;;;5108908;28;19913;-72
2022/05/30 11:33:52;;;;;;;;;;;15.10;99.90;;;;;;5107143;28;19916;-70
2022/05/30 11:36:26;;;;;;;;;;;14.80;99.90;;;;;;5104119;28;19916;-71
2022/05/30 11:39:11;;;;;;;;;;;14.40;99.90;;;;;;5099397;28;19966;-69
2022/05/30 11:41:55;;;;;;;;;;;14.00;99.90;;;;;;5088571;28;19938;-69
2022/05/30 11:44:43;;;;;;;;;;;13.80;99.90;;;;;;5106837;28;19969;-68
2022/05/30 11:47:29;;;;;;;;;;;13.90;99.90;;;;;;5107639;28;20233;-69
2022/05/30 11:49:54;;;;;;;;;;;13.90;99.90;;;;;;5108332;28;19921;-70
2022/05/30 11:52:34;;;;;;;;;;;13.90;99.90;;;;;;5109615;28;19901;-69
2022/05/30 11:55:06;;;;;;;;;;;14.10;99.90;;;;;;5108257;28;20411;-70
2022/05/30 11:57:40;;;;;;;;;;;14.20;99.90;;;;;;5106341;28;19912;-69
2022/05/30 12:00:09;;;;;;;;;;;14.10;99.90;;;;;;5105993;28;19969;-71
2022/05/30 12:02:38;;;;;;;;;;;14.00;99.90;;;;;;5100828;28;19924;-70
2022/05/30 12:05:04;;;;;;;;;;;14.00;99.90;;;;;;5106498;28;19951;-68
2022/05/30 12:07:29;;;;;;;;;;;14.10;99.90;;;;;;5106360;28;19928;-68
2022/05/30 12:10:10;;;;;;;;;;;14.00;99.90;;;;;;5099864;28;19938;-70
2022/05/30 12:12:36;;;;;;;;;;;14.00;99.90;;;;;;5088648;28;20057;-70
2022/05/30 12:15:14;;;;;;;;;;;14.00;99.90;;;;;;5103513;28;19900;-70
2022/05/30 12:23:48;;;;;;;;;;;14.00;99.90;;;;;;5099816;28;19931;-69
2022/05/30 12:26:13;;;;;;;;;;;13.90;99.90;;;;;;5104866;28;19923;-69
2022/05/30 12:28:42;;;;;;;;;;;14.00;99.90;;;;;;5106389;28;19911;-70
2022/05/30 12:31:08;;;;;;;;;;;14.20;99.90;;;;;;5107618;28;19913;-70
2022/05/30 12:33:33;;;;;;;;;;;14.40;99.90;;;;;;5108240;28;19978;-70
2022/05/30 12:36:08;;;;;;;;;;;14.70;99.90;;;;;;5109251;27;19912;-69
2022/05/30 12:38:50;;;;;;;;;;;14.80;99.90;;;;;;5105249;28;19952;-69
2022/05/30 12:41:18;;;;;;;;;;;14.80;99.90;;;;;;5105411;28;19961;-70
2022/05/30 12:43:45;;;;;;;;;;;15.10;99.90;;;;;;5091244;28;19905;-69
2022/05/30 12:46:16;;;;;;;;;;;15.50;99.90;;;;;;5097819;28;19973;-70
2022/05/30 12:48:44;;;;;;;;;;;15.70;99.90;;;;;;5089028;28;19920;-70
2022/05/30 12:51:12;;;;;;;;;;;15.70;99.90;;;;;;5106076;28;19915;-70
2022/05/30 12:54:00;;;;;;;;;;;15.60;99.90;;;;;;5106805;28;20112;-68
2022/05/30 12:56:43;;;;;;;;;;;15.90;99.90;;;;;;5106114;28;19905;-69
2022/05/30 12:59:25;;;;;;;;;;;15.90;99.90;;;;;;5088778;28;20369;-69
2022/05/30 13:01:53;;;;;;;;;;;15.90;99.90;;;;;;5107231;28;19947;-70
2022/05/30 13:04:21;;;;;;;;;;;16.10;99.90;;;;;;5097493;28;19940;-69
2022/05/30 13:07:01;;;;;;;;;;;16.00;99.90;;;;;;5101865;28;19900;-68
2022/05/30 13:09:36;;;;;;;;;;;16.10;99.90;;;;;;5082804;28;20554;-70
2022/05/30 13:12:11;;;;;;;;;;;16.30;99.90;;;;;;5102536;28;19923;-68
2022/05/30 13:14:39;;;;;;;;;;;16.40;99.90;;;;;;5107210;28;19972;-69
2022/05/30 13:17:20;;;;;;;;;;;16.50;99.90;;;;;;5097104;27;19916;-70
2022/05/30 13:19:51;;;;;;;;;;;16.70;99.90;;;;;;5094202;28;20439;-69
2022/05/30 13:22:36;;;;;;;;;;;16.90;99.90;;;;;;5100389;28;19912;-68
2022/05/30 13:25:03;;;;;;;;;;;17.00;99.50;;;;;;5109377;28;19916;-68
2022/05/30 13:27:29;;;;;;;;;;;17.50;99.10;;;;;;5106907;28;19916;-68
2022/05/30 13:30:00;;;;;;;;;;;17.80;98.30;;;;;;5109770;28;19939;-70
2022/05/30 13:32:25;;;;;;;;;;;18.00;95.10;;;;;;5091442;28;19955;-68
2022/05/30 13:34:52;;;;;;;;;;;18.10;93.60;;;;;;5100805;28;19931;-68
2022/05/30 13:37:23;;;;;;;;;;;18.10;93.70;;;;;;5102663;28;19912;-69
2022/05/30 13:39:49;;;;;;;;;;;18.20;93.90;;;;;;5094701;28;19912;-69
2022/05/30 13:42:15;;;;;;;;;;;18.40;94.50;;;;;;5109553;28;19917;-69
2022/05/30 13:44:42;;;;;;;;;;;18.00;92.70;;;;;;5104461;28;19924;-69
2022/05/30 13:47:14;;;;;;;;;;;18.10;92.30;;;;;;5098073;28;20334;-69
2022/05/30 13:49:41;;;;;;;;;;;17.90;93.30;;;;;;5096597;28;20725;-68
2022/05/30 13:52:10;;;;;;;;;;;17.60;92.30;;;;;;5098826;28;19912;-70
2022/05/30 13:54:39;;;;;;;;;;;17.50;91.20;;;;;;5107432;28;19923;-69
2022/05/30 13:57:08;;;;;;;;;;;17.30;90.80;;;;;;5108685;28;19900;-68
2022/05/30 13:59:40;;;;;;;;;;;17.10;90.90;;;;;;5081609;28;19908;-70
2022/05/30 14:02:14;;;;;;;;;;;16.90;91.80;;;;;;5089347;28;19916;-70
2022/05/30 14:04:41;;;;;;;;;;;17.00;92.00;;;;;;5097357;28;19962;-69
2022/05/30 14:07:26;;;;;;;;;;;17.20;91.50;;;;;;5097899;28;20011;-68
2022/05/30 14:09:54;;;;;;;;;;;17.30;90.60;;;;;;5101830;28;19920;-70
2022/05/30 14:12:20;;;;;;;;;;;17.40;90.60;;;;;;5106107;28;19916;-69
2022/05/30 14:14:47;;;;;;;;;;;17.60;86.80;;;;;;5092443;28;19923;-70
2022/05/30 14:17:23;;;;;;;;;;;17.50;85.80;;;;;;5086065;28;19912;-69
2022/05/30 14:20:00;;;;;;;;;;;17.70;86.50;;;;;;5106688;28;19928;-71
2022/05/30 14:22:26;;;;;;;;;;;17.70;83.70;;;;;;5105722;28;19928;-69
2022/05/30 14:24:58;;;;;;;;;;;17.60;84.70;;;;;;5110013;28;19931;-69
2022/05/30 14:27:27;;;;;;;;;;;17.80;84.80;;;;;;5102175;28;19945;-68
2022/05/30 14:29:57;;;;;;;;;;;18.00;84.70;;;;;;5103507;28;19909;-69
2022/05/30 14:32:24;;;;;;;;;;;18.10;84.50;;;;;;5097560;28;19979;-69
2022/05/30 14:34:56;;;;;;;;;;;18.20;82.50;;;;;;5093050;28;20362;-69
2022/05/30 14:37:26;;;;;;;;;;;18.20;77.00;;;;;;5071488;28;20323;-69
2022/05/30 14:39:53;;;;;;;;;;;18.20;82.60;;;;;;5094698;28;19921;-69
2022/05/30 14:42:20;;;;;;;;;;;18.00;82.60;;;;;;5077622;28;19912;-69
2022/05/30 14:44:50;;;;;;;;;;;18.10;83.10;;;;;;5105623;28;19905;-68
2022/05/30 14:47:25;;;;;;;;;;;17.90;84.30;;;;;;5108380;28;19947;-69
2022/05/30 14:50:14;;;;;;;;;;;17.70;85.00;;;;;;5114206;27;19927;-71
2022/05/30 14:52:49;;;;;;;;;;;17.70;85.60;;;;;;5082559;28;19939;-68
2022/05/30 14:55:24;;;;;;;;;;;17.70;86.00;;;;;;5087188;28;20077;-70